Bookmark and Share
Track history (hours):
 

Min Dong Yu61656

Last reported at 2014-Apr-18 10:00 UTC. Time now 2014-Apr-18 10:50 UTC.
Position N 37°05' E 020°50'.

Length 28 m.

Type: Fishing. MMSI: 412446018.

Water temperature 16.8 ° C

NotesDate/timePositionNaut miles runAvg speedWind from/ knotsBaromVisibWave heightAir tempDewpointWater temp
2014-Apr-18 10:00N 37°05' E 020°50'0 0.2 16.8
2014-Apr-18 09:00N 37°05' E 020°50'2 1.2 16.8
2014-Apr-18 07:00N 37°06' E 020°48'0 0.0 16.8
2014-Apr-18 05:00N 37°06' E 020°48'1 1.0 16.8
2014-Apr-18 04:00N 37°07' E 020°48'1 1.1 16.8
2014-Apr-18 03:00N 37°08' E 020°47'1 1.4 16.8
2014-Apr-18 02:00N 37°08' E 020°45'0 0.0 16.9
2014-Apr-18 01:00N 37°08' E 020°45'0 0.0 16.9
2014-Apr-18 00:00N 37°08' E 020°45'2 1.7 16.9
2014-Apr-17 23:00N 37°10' E 020°44'0 0.0 16.9
2014-Apr-17 22:00N 37°10' E 020°44'0 0.0 16.9
2014-Apr-17 21:00N 37°10' E 020°44'0 0.2 16.9
2014-Apr-17 20:00N 37°09' E 020°44'0 0.3 16.9
2014-Apr-17 19:00N 37°09' E 020°43'0 0.4 17.0
2014-Apr-17 18:00N 37°10' E 020°43'0 0.1 17.0
2014-Apr-17 17:00N 37°10' E 020°43'1 0.2 17.0
2014-Apr-17 14:00N 37°10' E 020°43'1 0.9 17.1
2014-Apr-17 13:00N 37°11' E 020°43'0 0.1 17.1
2014-Apr-17 12:00N 37°11' E 020°43'1 1.5 17.1
2014-Apr-17 11:00N 37°13' E 020°43'1 1.0 17.1
2014-Apr-17 10:00N 37°14' E 020°42'0 0.1 17.0
2014-Apr-17 09:00N 37°14' E 020°42'2 1.2 17.0
2014-Apr-17 07:00N 37°15' E 020°40'0 0.1 17.0
2014-Apr-17 05:00N 37°15' E 020°40'0 0.4 16.9
2014-Apr-17 04:00N 37°15' E 020°39'1 1.0 16.9
2014-Apr-17 03:00N 37°16' E 020°38'0 0.0 16.9
2014-Apr-17 02:00N 37°16' E 020°38'0 0.2 16.9
2014-Apr-17 01:00N 37°16' E 020°38'1 0.6 16.9
2014-Apr-17 00:00N 37°16' E 020°37'1 0.2 17.0
2014-Apr-16 20:00N 37°17' E 020°38'0 0.4 17.0
2014-Apr-16 19:00N 37°17' E 020°38'2 1.7 17.1
2014-Apr-16 18:00N 37°19' E 020°38'0 0.0 17.1
2014-Apr-16 17:00N 37°19' E 020°38'1 1.1 17.1
2014-Apr-16 16:00N 37°20' E 020°38'2 0.8 17.1
2014-Apr-16 14:00N 37°22' E 020°38'1 0.7 17.0
2014-Apr-16 12:00N 37°23' E 020°37'0 0.0 17.0
2014-Apr-16 11:00N 37°23' E 020°37'1 0.5 17.0
2014-Apr-16 09:00N 37°24' E 020°36'2 0.8 17.0
2014-Apr-16 06:00N 37°23' E 020°33'1 0.3 17.2
2014-Apr-16 04:00N 37°23' E 020°32'1 1.4 17.1
2014-Apr-16 03:00N 37°22' E 020°31'2 0.8 17.1
2014-Apr-16 01:00N 37°22' E 020°29'2 1.6 17.1
2014-Apr-16 00:00N 37°22' E 020°31'2 1.6 17.1
2014-Apr-15 23:00N 37°22' E 020°29'0 0.0 17.1
2014-Apr-15 21:00N 37°22' E 020°29'1 1.0 17.2
2014-Apr-15 20:00N 37°23' E 020°28'0 0.1 17.2
2014-Apr-15 19:00N 37°23' E 020°27'2 1.6 17.3
2014-Apr-15 18:00N 37°23' E 020°25'0 0.0 17.4
2014-Apr-15 17:00N 37°23' E 020°25'0 0.0 17.4
2014-Apr-15 16:00N 37°23' E 020°25'0 0.1 17.4
2014-Apr-15 15:00N 37°22' E 020°25'0 0.2 17.5
2014-Apr-15 14:00N 37°22' E 020°25'0 0.4 17.6
2014-Apr-15 13:00N 37°22' E 020°25'1 0.8 17.6
2014-Apr-15 12:00N 37°22' E 020°24'0 0.1 17.7
2014-Apr-15 11:00N 37°22' E 020°24'0 0.2 17.7
2014-Apr-15 09:00N 37°23' E 020°23'1 0.7 17.4
2014-Apr-15 08:00N 37°23' E 020°23'1 0.7 17.3
2014-Apr-15 07:00N 37°23' E 020°22'0 0.0 17.2
2014-Apr-15 06:00N 37°23' E 020°22'0 0.0 17.2
2014-Apr-15 05:00N 37°23' E 020°22'0 0.4 17.2
2014-Apr-15 04:00N 37°24' E 020°22'0 0.3 17.2
2014-Apr-15 03:00N 37°24' E 020°21'2 0.2 17.3
2014-Apr-14 19:00N 37°24' E 020°19'0 0.3 17.6
2014-Apr-14 18:00N 37°24' E 020°20'0 0.1 17.7
2014-Apr-14 17:00N 37°24' E 020°20'1 0.8 17.8
2014-Apr-14 16:00N 37°25' E 020°20'1 0.2 17.9
2014-Apr-14 11:00N 37°26' E 020°20'1 1.0 17.7
2014-Apr-14 10:00N 37°27' E 020°20'0 0.1 17.7
2014-Apr-14 09:00N 37°27' E 020°20'0 0.2 17.5
2014-Apr-14 08:00N 37°27' E 020°20'1 0.2 17.2
2014-Apr-14 05:00N 37°27' E 020°19'1 0.5 17.1
2014-Apr-14 04:00N 37°27' E 020°19'1 0.6 17.1
2014-Apr-14 03:00N 37°27' E 020°19'0 0.5 17.1
2014-Apr-14 02:00N 37°27' E 020°19'0 0.0 17.2
2014-Apr-14 01:00N 37°27' E 020°19'0 0.1 17.2
2014-Apr-14 00:00N 37°27' E 020°19'1 0.3 17.2
2014-Apr-13 20:00N 37°28' E 020°20'0 0.0 17.2
2014-Apr-13 13:00N 37°28' E 020°20'1 0.6 17.4
2014-Apr-13 12:00N 37°28' E 020°20'0 0.2 17.3
2014-Apr-13 10:00N 37°28' E 020°20'2 0.4 17.3
2014-Apr-13 04:00N 37°28' E 020°17'0 0.1 17.2
2014-Apr-13 03:00N 37°27' E 020°17'0 0.0 17.2
2014-Apr-13 02:00N 37°27' E 020°17'1 0.5 17.2
2014-Apr-13 01:00N 37°27' E 020°17'1 0.9 17.2
2014-Apr-13 00:00N 37°26' E 020°16'1 0.2 17.2
2014-Apr-12 21:00N 37°26' E 020°17'0 0.2 17.5
2014-Apr-12 20:00N 37°26' E 020°16'0 0.2 17.5
2014-Apr-12 19:00N 37°26' E 020°16'0 0.4 17.6
2014-Apr-12 18:00N 37°26' E 020°16'1 0.9 17.7
2014-Apr-12 17:00N 37°25' E 020°15'1 0.3 17.8
2014-Apr-12 14:00N 37°25' E 020°14'0 0.0 18.1
2014-Apr-12 13:00N 37°25' E 020°14'1 1.1 18.2
2014-Apr-12 12:00N 37°24' E 020°13'0 0.2 18.2
2014-Apr-12 11:00N 37°24' E 020°13'2 0.8 18.0
2014-Apr-12 09:00N 37°23' E 020°14'0 0.4 17.5
2014-Apr-12 08:00N 37°22' E 020°14'2 1.7 17.2
2014-Apr-12 07:00N 37°20' E 020°14'0 0.1 17.1
2014-Apr-12 05:00N 37°20' E 020°13'1 0.5 17.1
2014-Apr-12 03:00N 37°20' E 020°15'0 0.1 17.1
2014-Apr-12 01:00N 37°20' E 020°15'0 0.0 17.1
2014-Apr-12 00:00N 37°20' E 020°15'0 0.0 17.1
2014-Apr-11 23:00N 37°20' E 020°15'1 0.3 17.1
2014-Apr-11 19:00N 37°22' E 020°14'1 0.8 17.2
2014-Apr-11 18:00N 37°22' E 020°13'1 0.5 17.2
2014-Apr-11 15:00N 37°22' E 020°12'1 1.3 17.3
2014-Apr-11 14:00N 37°21' E 020°10'0 0.1 17.3
2014-Apr-11 13:00N 37°21' E 020°10'2 1.9 17.2
2014-Apr-11 12:00N 37°20' E 020°08'0 0.0 17.2
2014-Apr-11 11:00N 37°20' E 020°08'0 0.0 17.2
2014-Apr-11 10:00N 37°20' E 020°08'1 0.2 17.2
2014-Apr-11 05:00N 37°20' E 020°08'1 0.3 16.9
2014-Apr-11 03:00N 37°20' E 020°07'0 0.1 17.0
2014-Apr-11 01:00N 37°20' E 020°07'0 0.0 17.0
2014-Apr-11 00:00N 37°20' E 020°07'1 0.4 17.0
2014-Apr-10 21:00N 37°21' E 020°06'0 0.0 17.0
2014-Apr-10 20:00N 37°21' E 020°06'1 0.6 17.1
2014-Apr-10 18:00N 37°22' E 020°06'0 0.0 17.2
2014-Apr-10 17:00N 37°22' E 020°06'0 0.1 17.2
2014-Apr-10 15:00N 37°22' E 020°06'1 0.7 17.2
2014-Apr-10 14:00N 37°23' E 020°05'0 0.0 17.2
2014-Apr-10 12:00N 37°23' E 020°05'0 0.2 17.2
2014-Apr-10 11:00N 37°23' E 020°05'1 0.4 17.2
2014-Apr-10 09:00N 37°23' E 020°04'1 0.4 16.8
2014-Apr-10 07:00N 37°24' E 020°04'0 0.1 17.0
2014-Apr-10 04:00N 37°24' E 020°04'0 0.2 17.0
2014-Apr-10 03:00N 37°24' E 020°04'0 0.2 17.0
2014-Apr-10 02:00N 37°24' E 020°04'0 0.1 17.0
2014-Apr-10 00:00N 37°24' E 020°03'1 0.3 17.1
2014-Apr-09 20:00N 37°22' E 020°03'1 1.3 17.3
2014-Apr-09 19:00N 37°22' E 020°02'1 0.7 17.3
2014-Apr-09 18:00N 37°22' E 020°01'0 0.0 17.2
2014-Apr-09 17:00N 37°22' E 020°01'1 0.5 17.2
2014-Apr-09 16:00N 37°22' E 020°01'0 0.3 17.1
2014-Apr-09 15:00N 37°22' E 020°00'2 1.6 17.0
2014-Apr-09 14:00N 37°21' E 019°58'1 0.8 17.1
2014-Apr-09 13:00N 37°21' E 019°57'0 0.0 17.1
2014-Apr-09 12:00N 37°21' E 019°57'3 0.8 17.1
2014-Apr-09 08:00N 37°18' E 019°55'1 0.7 16.8
2014-Apr-09 07:00N 37°17' E 019°55'1 1.0 16.6
2014-Apr-09 06:00N 37°16' E 019°55'0 0.1 16.6
2014-Apr-09 04:00N 37°16' E 019°55'0 0.2 16.6
2014-Apr-09 03:00N 37°16' E 019°55'0 0.4 16.7
2014-Apr-09 02:00N 37°16' E 019°55'0 0.5 16.7
2014-Apr-09 01:00N 37°16' E 019°55'0 0.0 16.7
2014-Apr-09 00:00N 37°16' E 019°55'2 1.6 16.8
2014-Apr-08 23:00N 37°16' E 019°53'2 0.6 16.7
2014-Apr-08 20:00N 37°17' E 019°52'1 0.9 16.9
2014-Apr-08 19:00N 37°16' E 019°52'0 0.0 17.0
2014-Apr-08 18:00N 37°16' E 019°52'2 0.6 17.1
2014-Apr-08 15:00N 37°15' E 019°50'0 0.1 17.8
2014-Apr-08 12:00N 37°15' E 019°50'0 0.1 18.1
2014-Apr-08 11:00N 37°15' E 019°50'   18.1

Dump ship's entire track history

sailing weather and tide predictions

Buoy 61656